Beallsville, MD (20839)

5:13 PM EDT on May 30, 2015 (GMT -0400)
Poolesville, MD | | Change Station
CLOSE
Current Station
Personal Weather Station
Location: Poolesville, MD
Elevation: 341 ft
Nearby Weather Stations

Elev 341 ft 39.14 °N, 77.40 °W | Updated 6 minutes ago

Partly Cloudy
Partly Cloudy
88.0 °F
Feels Like 90 °F
N
2.2
Wind Variable Wind from SE

Today
High -- | Low -- °F
--% Chance of Precip.
Yesterday
High -- | Low -- °F
Precip. -- in
5:46 AM 8:28 PM
Waxing Gibbous, 92% visible
Pressure 30.08 in
Visibility 10.0 miles
Clouds Clear
Heat Index 90 °F
Dew Point 65 °F
Humidity 47%
Rainfall 0.00 in
Snow Depth Not available.
UV 5 out of 12
Pollen 8.80 out of 12
Air Quality Not available.
Flu Activity Sporadic
METAR KJYO 302055Z AUTO 20011G18KT 10SM CLR 31/18 A3008 RMK AO2 LTG DSNT N

More Conditions Fewer Conditions

Pressure 30.08 in
Visibility 10.0 miles
Clouds Clear
Heat Index 90 °F
Dew Point 65 °F
Humidity 47%
Rainfall 0.00 in
Snow Depth Not available.
UV 5 out of 12
Pollen 8.80 out of 12
Air Quality Not available.
Flu Activity Sporadic
METAR KJYO 302055Z AUTO 20011G18KT 10SM CLR 31/18 A3008 RMK AO2 LTG DSNT N

More Conditions Fewer Conditions

10-Day Weather Forecast

Almanac

Astronomy

May. 30, 2015 Rise Set
Actual Time
Civil Twilight
Nautical Twilight
Astronomical Twilight
Moon
Length of Visible Light
Length of Day
Tomorrow will be .
, % of the Moon is Illuminated

Today's Extremes

State Highs State Lows

Community

WunderPhotos

Upload Photos

1,825,603 photos uploaded!

WunderBlogs® & News

Nearby

Air Quality

  Air Quality AQ Index Pollutant
Not available.

Snow Depth

Station Depth Elevation

Earthquake Activity

City Distance Mag. Time & Date
Minimum magnitude displayed is 2.5.

Coastal Water Temperatures

Place Temperature

Stations

Nearby Weather Stations

Station Location Temp. Windchill Dew Point Humidity Wind Precip. Elev Updated Type